createdAt,value
2019-04-23T00:00:18.688Z,5.40
2019-04-23T00:01:26.791Z,5.90
2019-04-23T00:02:13.513Z,7.00
2019-04-23T00:03:12.868Z,6.30
2019-04-23T00:04:10.428Z,4.50
2019-04-23T00:05:16.989Z,5.80
2019-04-23T00:06:19.189Z,4.90
2019-04-23T00:07:26.562Z,4.60
2019-04-23T00:08:19.697Z,8.40
2019-04-23T00:09:20.403Z,4.70
2019-04-23T00:10:19.340Z,6.20
2019-04-23T00:12:20.568Z,6.50
2019-04-23T00:13:12.484Z,7.00
2019-04-23T00:14:24.007Z,6.10
2019-04-23T00:15:13.574Z,4.40
2019-04-23T00:17:15.003Z,6.10
2019-04-23T00:18:28.166Z,5.00
2019-04-23T00:19:16.953Z,6.90
2019-04-23T00:20:14.408Z,5.70
2019-04-23T00:21:13.246Z,5.60
2019-04-23T00:22:13.840Z,8.30
2019-04-23T00:23:17.548Z,5.40
2019-04-23T00:24:17.527Z,5.20
2019-04-23T00:25:33.082Z,4.60
2019-04-23T00:27:27.476Z,7.10
2019-04-23T00:30:10.342Z,3.90
2019-04-23T00:31:18.447Z,4.90
2019-04-23T00:32:34.595Z,3.90
2019-04-23T00:33:21.878Z,4.40
2019-04-23T00:34:16.382Z,8.10
2019-04-23T00:35:16.060Z,4.40
2019-04-23T00:36:20.964Z,8.30
2019-04-23T00:37:18.843Z,5.50
2019-04-23T00:38:21.000Z,5.00
2019-04-23T00:39:18.819Z,5.90
2019-04-23T00:40:12.154Z,4.40
2019-04-23T00:41:19.233Z,7.70
2019-04-23T00:42:16.347Z,5.00
2019-04-23T00:43:15.159Z,6.70
2019-04-23T00:44:15.066Z,5.10
2019-04-23T00:45:18.132Z,7.20
2019-04-23T00:46:18.466Z,9.40
2019-04-23T00:47:20.918Z,4.50
2019-04-23T00:48:26.050Z,4.80
2019-04-23T00:49:22.663Z,6.40
2019-04-23T00:51:13.843Z,7.70
2019-04-23T00:52:24.726Z,5.10
2019-04-23T00:53:19.229Z,7.60
2019-04-23T00:54:19.860Z,7.60
2019-04-23T00:55:14.849Z,7.10
2019-04-23T00:56:32.354Z,6.50
2019-04-23T00:57:14.966Z,5.10
2019-04-23T00:59:13.593Z,7.00
2019-04-23T01:00:19.040Z,6.90
2019-04-23T01:01:12.967Z,5.00
2019-04-23T01:02:18.170Z,7.30
2019-04-23T01:03:11.855Z,7.90
2019-04-23T01:04:12.050Z,6.20
2019-04-23T01:05:18.407Z,6.90
2019-04-23T01:06:16.026Z,5.80
2019-04-23T01:07:16.361Z,7.30
2019-04-23T01:08:12.873Z,8.00
2019-04-23T01:09:14.197Z,8.30
2019-04-23T01:10:14.003Z,6.10
2019-04-23T01:11:16.633Z,8.10
2019-04-23T01:12:16.298Z,5.60
2019-04-23T01:13:14.610Z,10.50
2019-04-23T01:14:16.250Z,6.40
2019-04-23T01:15:21.267Z,5.80
2019-04-23T01:16:11.615Z,8.00
2019-04-23T01:17:18.565Z,6.50
2019-04-23T01:18:19.102Z,5.90
2019-04-23T01:19:10.238Z,5.10
2019-04-23T01:20:08.096Z,6.60
2019-04-23T01:20:54.435Z,7.50
2019-04-23T01:21:53.359Z,5.60
2019-04-23T01:22:52.925Z,6.20
2019-04-23T01:23:58.874Z,6.60
2019-04-23T01:24:52.994Z,6.80
2019-04-23T01:26:00.348Z,7.00
2019-04-23T01:27:32.271Z,6.00
2019-04-23T01:28:13.748Z,6.70
2019-04-23T01:29:35.866Z,6.40
2019-04-23T01:30:15.823Z,8.80
2019-04-23T01:32:21.011Z,7.20
2019-04-23T01:33:24.372Z,5.60
2019-04-23T01:34:19.976Z,5.20
2019-04-23T01:35:25.375Z,6.70
2019-04-23T01:37:19.145Z,8.10
2019-04-23T01:38:21.924Z,7.60
2019-04-23T01:39:19.362Z,6.40
2019-04-23T01:40:19.012Z,6.20
2019-04-23T01:41:20.494Z,7.20
2019-04-23T01:42:23.935Z,5.60
2019-04-23T01:43:18.181Z,5.70
2019-04-23T01:44:22.470Z,6.40
2019-04-23T01:45:20.354Z,6.10
2019-04-23T01:46:13.601Z,5.10
2019-04-23T01:47:17.080Z,7.30
2019-04-23T01:48:12.805Z,5.00
2019-04-23T01:49:20.722Z,7.80
2019-04-23T01:50:21.837Z,5.60
2019-04-23T01:51:18.999Z,7.10
2019-04-23T01:52:25.034Z,5.30
2019-04-23T01:53:18.414Z,4.90
2019-04-23T01:54:19.252Z,8.00
2019-04-23T01:55:21.230Z,6.00
2019-04-23T01:56:20.291Z,6.20
2019-04-23T01:57:28.833Z,5.40
2019-04-23T01:58:38.368Z,5.20
2019-04-23T01:59:20.107Z,7.20
2019-04-23T02:01:19.191Z,5.80
2019-04-23T02:02:19.371Z,6.10
2019-04-23T02:03:15.247Z,5.20
2019-04-23T02:04:24.741Z,6.10
2019-04-23T02:05:23.243Z,5.50
2019-04-23T02:06:31.605Z,6.30
2019-04-23T02:07:24.356Z,4.90
2019-04-23T02:08:17.470Z,5.30
2019-04-23T02:09:16.855Z,8.30
2019-04-23T02:10:29.787Z,5.80
2019-04-23T02:11:11.460Z,6.70
2019-04-23T02:12:19.999Z,5.80
2019-04-23T02:15:17.020Z,5.20
2019-04-23T02:16:19.260Z,6.30
2019-04-23T02:17:18.808Z,6.20
2019-04-23T02:18:16.431Z,4.90
2019-04-23T02:19:25.426Z,9.90
2019-04-23T02:20:22.280Z,6.90
2019-04-23T02:21:15.019Z,5.30
2019-04-23T02:22:25.045Z,6.50
2019-04-23T02:23:18.294Z,5.30
2019-04-23T02:24:19.484Z,8.10
2019-04-23T02:25:25.317Z,5.40
2019-04-23T02:26:15.618Z,4.70
2019-04-23T02:27:22.385Z,5.70
2019-04-23T02:28:33.006Z,8.30
2019-04-23T02:29:30.021Z,7.90
2019-04-23T02:30:40.978Z,5.70
2019-04-23T02:31:35.844Z,6.00
2019-04-23T02:32:32.344Z,5.70
2019-04-23T02:34:31.046Z,5.60
2019-04-23T02:35:32.601Z,5.60
2019-04-23T02:36:11.499Z,7.40
2019-04-23T02:38:31.558Z,8.20
2019-04-23T02:39:21.862Z,6.10
2019-04-23T02:40:28.791Z,7.60
2019-04-23T02:41:28.988Z,5.30
2019-04-23T02:42:55.370Z,6.00
2019-04-23T02:43:18.470Z,6.30
2019-04-23T02:46:31.211Z,6.10
2019-04-23T02:48:24.283Z,6.50
2019-04-23T02:49:40.590Z,6.60
2019-04-23T02:52:21.752Z,6.10
2019-04-23T02:53:45.470Z,6.10
2019-04-23T02:54:34.973Z,6.40
2019-04-23T02:55:31.142Z,7.20
2019-04-23T02:56:34.721Z,6.20
2019-04-23T02:57:24.677Z,6.30
2019-04-23T02:58:30.177Z,6.10
2019-04-23T02:59:32.757Z,6.90
2019-04-23T03:00:40.124Z,6.50
2019-04-23T03:02:42.864Z,6.60
2019-04-23T03:04:28.714Z,6.30
2019-04-23T03:05:20.026Z,6.40
2019-04-23T03:06:20.198Z,6.90
2019-04-23T03:08:28.747Z,6.50
2019-04-23T03:09:29.699Z,7.10
2019-04-23T03:10:24.675Z,7.90
2019-04-23T03:12:31.403Z,7.00
2019-04-23T03:15:29.818Z,6.70
2019-04-23T03:16:31.720Z,7.00
2019-04-23T03:17:25.955Z,6.80
2019-04-23T03:19:25.641Z,7.00
2019-04-23T03:22:25.281Z,7.30
2019-04-23T03:24:33.893Z,7.80
2019-04-23T03:26:36.850Z,7.10
2019-04-23T03:28:26.906Z,7.80
2019-04-23T03:29:40.426Z,8.20
2019-04-23T03:30:27.130Z,7.60
2019-04-23T03:34:38.511Z,9.90
2019-04-23T03:36:17.293Z,7.70
2019-04-23T03:37:34.077Z,7.90
2019-04-23T03:38:41.801Z,8.60
2019-04-23T03:39:18.751Z,7.80
2019-04-23T03:40:13.640Z,7.80
2019-04-23T03:41:30.045Z,9.00
2019-04-23T03:43:25.124Z,8.80
2019-04-23T03:44:20.616Z,8.60
2019-04-23T03:45:36.912Z,9.30
2019-04-23T03:47:24.822Z,8.60
2019-04-23T03:48:25.749Z,8.90
2019-04-23T03:49:19.673Z,9.20
2019-04-23T03:50:37.961Z,8.80
2019-04-23T03:51:26.048Z,9.30
2019-04-23T03:52:27.648Z,9.20
2019-04-23T03:54:33.779Z,9.30
2019-04-23T03:55:32.327Z,9.30
2019-04-23T04:03:42.195Z,9.60
2019-04-23T04:04:33.486Z,9.70
2019-04-23T04:05:33.411Z,10.20
2019-04-23T04:06:29.356Z,11.00
2019-04-23T04:07:29.318Z,9.80
2019-04-23T04:10:16.526Z,9.70
2019-04-23T04:12:29.190Z,9.90
2019-04-23T04:15:48.408Z,9.20
2019-04-23T04:16:23.400Z,11.10
2019-04-23T04:17:19.594Z,11.10
2019-04-23T04:18:30.934Z,10.80
2019-04-23T04:20:33.012Z,10.40
2019-04-23T04:21:27.913Z,10.40
2019-04-23T04:22:29.234Z,11.60
2019-04-23T04:24:27.620Z,10.20
2019-04-23T04:25:26.848Z,11.60
2019-04-23T04:26:20.725Z,11.10
2019-04-23T04:27:24.625Z,11.30
2019-04-23T04:29:30.248Z,10.60
2019-04-23T04:30:37.558Z,11.60
2019-04-23T04:31:21.394Z,10.90
2019-04-23T04:32:42.921Z,10.90
2019-04-23T04:34:51.538Z,11.10
2019-04-23T04:35:22.052Z,11.30
2019-04-23T04:38:38.682Z,11.20
2019-04-23T04:40:10.694Z,11.10
2019-04-23T04:41:29.054Z,11.30
2019-04-23T04:43:37.288Z,12.20
2019-04-23T04:44:38.331Z,12.00
2019-04-23T04:45:30.407Z,12.70
2019-04-23T04:46:39.807Z,13.00
2019-04-23T04:47:28.382Z,11.30
2019-04-23T04:48:23.172Z,11.60
2019-04-23T04:49:25.527Z,11.80
2019-04-23T04:50:22.821Z,12.60
2019-04-23T04:52:34.163Z,12.20
2019-04-23T04:53:38.374Z,11.80
2019-04-23T04:54:18.878Z,11.70
2019-04-23T04:55:37.552Z,12.20
2019-04-23T04:56:29.173Z,13.20
2019-04-23T04:57:34.594Z,12.60
2019-04-23T04:58:39.320Z,13.00
2019-04-23T04:59:17.674Z,11.70
2019-04-23T05:00:32.916Z,12.50
2019-04-23T05:01:22.393Z,11.30
2019-04-23T05:02:26.036Z,11.90
2019-04-23T05:08:22.800Z,11.70
2019-04-23T05:09:19.927Z,12.00
2019-04-23T05:10:29.692Z,12.50
2019-04-23T05:14:23.644Z,12.10
2019-04-23T05:15:28.249Z,12.00
2019-04-23T05:16:19.636Z,11.80
2019-04-23T05:17:27.580Z,11.70
2019-04-23T05:19:57.464Z,13.50
2019-04-23T05:22:16.619Z,12.50
2019-04-23T05:24:15.016Z,12.80
2019-04-23T05:25:12.397Z,11.60
2019-04-23T05:26:22.383Z,12.60
2019-04-23T05:27:15.750Z,11.80
2019-04-23T05:28:13.873Z,11.70
2019-04-23T05:30:15.255Z,11.10
2019-04-23T05:32:14.890Z,11.80
2019-04-23T05:33:18.549Z,13.40
2019-04-23T05:34:10.669Z,11.60
2019-04-23T05:35:20.334Z,11.20
2019-04-23T05:36:26.630Z,10.90
2019-04-23T05:37:12.963Z,12.50
2019-04-23T05:40:28.200Z,12.90
2019-04-23T05:41:16.643Z,11.50
2019-04-23T05:42:15.721Z,11.50
2019-04-23T05:43:15.815Z,12.70
2019-04-23T05:44:15.477Z,12.20
2019-04-23T05:45:24.846Z,12.70
2019-04-23T05:46:25.066Z,12.30
2019-04-23T05:49:12.751Z,12.60
2019-04-23T05:50:21.656Z,12.20
2019-04-23T05:52:29.854Z,11.50
2019-04-23T05:53:14.155Z,11.20
2019-04-23T05:54:12.940Z,12.20
2019-04-23T05:55:14.186Z,12.90
2019-04-23T05:56:15.183Z,12.20
2019-04-23T05:57:16.520Z,12.70
2019-04-23T05:58:19.905Z,11.90
2019-04-23T05:59:17.231Z,16.80
2019-04-23T06:00:19.454Z,11.90
2019-04-23T06:01:37.517Z,12.40
2019-04-23T06:02:11.346Z,13.20
2019-04-23T06:03:16.624Z,12.30
2019-04-23T06:04:22.013Z,11.90
2019-04-23T06:05:22.474Z,12.10
2019-04-23T06:06:20.955Z,12.40
2019-04-23T06:07:23.527Z,12.10
2019-04-23T06:08:18.241Z,12.10
2019-04-23T06:09:14.243Z,12.20
2019-04-23T06:10:16.538Z,12.30
2019-04-23T06:11:25.996Z,11.40
2019-04-23T06:12:25.399Z,12.30
2019-04-23T06:13:17.082Z,11.60
2019-04-23T06:15:11.280Z,12.10
2019-04-23T06:16:15.825Z,11.40
2019-04-23T06:17:14.454Z,16.20
2019-04-23T06:18:17.080Z,12.10
2019-04-23T06:19:18.685Z,13.60
2019-04-23T06:21:15.671Z,11.40
2019-04-23T06:23:27.169Z,12.70
2019-04-23T06:24:28.940Z,13.80
2019-04-23T06:25:25.273Z,11.50
2019-04-23T06:27:16.611Z,11.30
2019-04-23T06:28:19.287Z,11.90
2019-04-23T06:29:22.512Z,12.10
2019-04-23T06:30:35.301Z,11.90
2019-04-23T06:31:19.895Z,11.90
2019-04-23T06:32:14.921Z,13.00
2019-04-23T06:33:20.942Z,11.70
2019-04-23T06:34:20.195Z,11.20
2019-04-23T06:35:12.122Z,10.80
2019-04-23T06:36:13.175Z,11.20
2019-04-23T06:37:09.380Z,12.20
2019-04-23T06:39:06.892Z,10.90
2019-04-23T06:40:13.965Z,12.20
2019-04-23T06:41:16.771Z,10.90
2019-04-23T06:42:24.591Z,10.60
2019-04-23T06:43:11.290Z,11.70
2019-04-23T06:45:04.772Z,10.80
2019-04-23T06:46:17.158Z,11.60
2019-04-23T06:47:08.592Z,23.50
2019-04-23T06:48:19.180Z,13.00
2019-04-23T06:49:20.625Z,10.80
2019-04-23T06:50:06.579Z,17.10
2019-04-23T06:52:18.345Z,13.80
2019-04-23T06:53:09.166Z,17.80
2019-04-23T06:54:12.294Z,14.10
2019-04-23T06:55:14.985Z,17.70
2019-04-23T06:58:20.372Z,13.70
2019-04-23T06:59:12.065Z,22.00
2019-04-23T07:00:13.609Z,22.50
2019-04-23T07:01:11.398Z,17.70
2019-04-23T07:02:17.173Z,14.80
2019-04-23T07:03:16.164Z,13.50
2019-04-23T07:04:10.691Z,34.10
2019-04-23T07:07:42.574Z,18.00
2019-04-23T07:08:15.512Z,11.00
2019-04-23T07:10:11.144Z,14.20
2019-04-23T07:12:08.621Z,15.20
2019-04-23T07:13:13.981Z,16.20
2019-04-23T07:14:33.918Z,15.60
2019-04-23T07:16:09.563Z,20.40
2019-04-23T07:17:21.278Z,14.50
2019-04-23T07:18:12.549Z,13.70
2019-04-23T07:19:16.560Z,14.50
2019-04-23T07:20:18.092Z,22.30
2019-04-23T07:23:14.103Z,20.10
2019-04-23T07:24:13.433Z,16.20
2019-04-23T07:25:12.799Z,21.50
2019-04-23T07:26:26.096Z,29.80
2019-04-23T07:27:13.229Z,16.60
2019-04-23T07:28:15.039Z,15.70
2019-04-23T07:29:07.256Z,9.50
2019-04-23T07:30:16.346Z,10.60
2019-04-23T07:31:28.351Z,11.10
2019-04-23T07:32:23.280Z,11.10
2019-04-23T07:33:11.292Z,10.80
2019-04-23T07:34:05.519Z,10.60
2019-04-23T07:36:20.635Z,10.80
2019-04-23T07:37:15.715Z,11.70
2019-04-23T07:38:20.649Z,10.40
2019-04-23T07:39:17.616Z,10.20
2019-04-23T07:40:26.345Z,11.10
2019-04-23T07:41:18.037Z,11.70
2019-04-23T07:43:16.915Z,10.80
2019-04-23T07:46:13.607Z,13.00
2019-04-23T07:49:10.364Z,10.80
2019-04-23T07:51:29.493Z,9.40
2019-04-23T07:52:15.042Z,10.20
2019-04-23T07:53:22.941Z,10.10
2019-04-23T07:54:16.300Z,10.50
2019-04-23T07:55:19.327Z,10.90
2019-04-23T07:57:14.966Z,10.50
2019-04-23T07:59:13.921Z,10.60
2019-04-23T08:00:07.485Z,11.60
2019-04-23T08:01:09.067Z,10.40
2019-04-23T08:02:26.167Z,12.10
2019-04-23T08:03:17.674Z,11.50
2019-04-23T08:04:08.966Z,10.80
2019-04-23T08:05:21.808Z,13.00
2019-04-23T08:06:05.909Z,11.30
2019-04-23T08:07:16.409Z,11.20
2019-04-23T08:08:26.519Z,11.00
2019-04-23T08:09:09.232Z,10.10
2019-04-23T08:10:12.378Z,13.30
2019-04-23T08:11:30.764Z,10.70
2019-04-23T08:12:19.259Z,11.30
2019-04-23T08:13:16.357Z,10.50
2019-04-23T08:14:28.384Z,10.20
2019-04-23T08:15:14.585Z,12.80
2019-04-23T08:16:18.355Z,11.30
2019-04-23T08:17:10.835Z,11.50
2019-04-23T08:18:15.834Z,11.10
2019-04-23T08:19:05.551Z,11.10
2019-04-23T08:20:30.712Z,10.50
2019-04-23T08:21:10.577Z,10.70
2019-04-23T08:22:20.124Z,11.50
2019-04-23T08:23:09.949Z,12.10
2019-04-23T08:25:14.294Z,12.70
2019-04-23T08:26:19.458Z,11.50
2019-04-23T08:27:22.377Z,11.20
2019-04-23T08:28:14.424Z,10.90
2019-04-23T08:29:13.967Z,10.00
2019-04-23T08:30:04.539Z,10.50
2019-04-23T08:31:15.163Z,11.50
2019-04-23T08:32:11.791Z,14.00
2019-04-23T08:33:12.575Z,12.00
2019-04-23T08:34:25.649Z,11.20
2019-04-23T08:35:09.253Z,11.00
2019-04-23T08:36:11.780Z,11.90
2019-04-23T08:38:21.198Z,10.40
2019-04-23T08:39:13.747Z,11.40
2019-04-23T08:40:09.773Z,11.10
2019-04-23T08:41:16.231Z,11.00
2019-04-23T08:42:30.336Z,11.20
2019-04-23T08:43:22.818Z,12.00
2019-04-23T08:44:15.634Z,14.20
2019-04-23T08:46:14.013Z,10.30
2019-04-23T08:47:15.630Z,11.90
2019-04-23T08:48:20.976Z,12.70
2019-04-23T08:49:11.900Z,12.70
2019-04-23T08:50:23.335Z,11.20
2019-04-23T08:51:23.771Z,12.00
2019-04-23T08:52:14.822Z,11.90
2019-04-23T08:53:23.439Z,11.30
2019-04-23T08:54:15.253Z,11.60
2019-04-23T08:55:10.108Z,12.00
2019-04-23T08:56:12.391Z,10.70
2019-04-23T08:58:15.108Z,11.80
2019-04-23T08:59:22.874Z,11.90
2019-04-23T09:00:10.862Z,12.20
2019-04-23T09:01:13.477Z,11.10
2019-04-23T09:02:25.607Z,10.90
2019-04-23T09:04:09.204Z,12.20
2019-04-23T09:05:16.152Z,11.40
2019-04-23T09:06:10.845Z,11.00
2019-04-23T09:07:16.909Z,12.70
2019-04-23T09:09:13.249Z,11.90
2019-04-23T09:10:11.318Z,11.50
2019-04-23T09:12:08.799Z,10.50
2019-04-23T09:13:33.218Z,11.50
2019-04-23T09:14:05.290Z,10.90
2019-04-23T09:15:16.502Z,11.30
2019-04-23T09:16:08.463Z,10.30
2019-04-23T09:17:13.262Z,11.60
2019-04-23T09:19:16.523Z,10.40
2019-04-23T09:20:18.697Z,10.10
2019-04-23T09:21:10.216Z,13.90
2019-04-23T09:22:19.147Z,9.30
2019-04-23T09:23:13.591Z,10.20
2019-04-23T09:24:11.679Z,10.60
2019-04-23T09:25:13.220Z,11.30
2019-04-23T09:26:21.851Z,9.40
2019-04-23T09:27:16.425Z,11.20
2019-04-23T09:28:09.519Z,11.50
2019-04-23T09:29:14.699Z,16.90
2019-04-23T09:30:14.836Z,10.20
2019-04-23T09:31:18.656Z,14.30
2019-04-23T09:32:22.400Z,11.30
2019-04-23T09:33:21.674Z,10.50
2019-04-23T09:34:29.785Z,11.50
2019-04-23T09:35:14.603Z,11.40
2019-04-23T09:36:13.673Z,10.60
2019-04-23T09:37:10.272Z,11.00
2019-04-23T09:38:28.179Z,10.80
2019-04-23T09:39:12.877Z,10.60
2019-04-23T09:40:16.773Z,10.60
2019-04-23T09:42:16.138Z,11.30
2019-04-23T09:46:11.950Z,10.90
2019-04-23T09:47:16.031Z,12.40
2019-04-23T09:48:17.738Z,10.60
2019-04-23T09:49:14.936Z,12.00
2019-04-23T09:50:08.221Z,10.50
2019-04-23T09:51:15.771Z,10.00
2019-04-23T09:52:13.369Z,13.10
2019-04-23T09:53:17.155Z,10.00
2019-04-23T09:54:09.164Z,11.20
2019-04-23T09:55:13.708Z,10.50
2019-04-23T09:56:08.078Z,9.70
2019-04-23T09:57:07.303Z,10.70
2019-04-23T09:58:07.799Z,14.50
2019-04-23T09:59:17.512Z,11.70
2019-04-23T10:00:23.060Z,11.30
2019-04-23T10:01:12.002Z,11.30
2019-04-23T10:02:02.700Z,10.40
2019-04-23T10:02:59.590Z,11.80
2019-04-23T10:03:57.666Z,13.20
2019-04-23T10:04:57.387Z,10.60
2019-04-23T10:05:51.175Z,9.40
2019-04-23T10:06:58.414Z,11.10
2019-04-23T10:07:51.945Z,11.40
2019-04-23T10:08:49.434Z,11.00
2019-04-23T10:09:42.526Z,12.10
2019-04-23T10:10:42.305Z,12.00
2019-04-23T10:11:43.125Z,10.90
2019-04-23T10:12:42.181Z,13.50
2019-04-23T10:13:42.803Z,11.80
2019-04-23T10:14:51.827Z,11.90
2019-04-23T10:15:44.552Z,11.90
2019-04-23T10:16:43.350Z,11.90
2019-04-23T10:17:42.392Z,12.60
2019-04-23T10:18:41.921Z,11.90
2019-04-23T10:19:42.715Z,12.10
2019-04-23T10:20:42.640Z,11.30
2019-04-23T10:21:41.984Z,11.80
2019-04-23T10:22:42.208Z,12.90
2019-04-23T10:23:43.280Z,10.60
2019-04-23T10:24:43.432Z,11.60
2019-04-23T10:25:41.800Z,11.90
2019-04-23T10:26:41.963Z,10.80
2019-04-23T10:27:43.308Z,11.60
2019-04-23T10:28:42.188Z,11.00
2019-04-23T10:29:41.815Z,13.50
2019-04-23T10:30:42.680Z,14.80
2019-04-23T10:31:42.170Z,14.00
2019-04-23T10:32:43.138Z,12.20
2019-04-23T10:33:42.180Z,11.10
2019-04-23T10:34:53.009Z,12.40
2019-04-23T10:35:51.298Z,11.10
2019-04-23T10:36:42.289Z,12.30
2019-04-23T10:37:49.102Z,11.90
2019-04-23T10:38:50.477Z,10.60
2019-04-23T10:39:46.853Z,11.60
2019-04-23T10:40:45.907Z,11.90
2019-04-23T10:41:45.944Z,15.50
2019-04-23T10:42:44.630Z,12.60
2019-04-23T10:43:43.967Z,13.10
2019-04-23T10:44:43.874Z,12.40
2019-04-23T10:45:59.335Z,12.30
2019-04-23T10:47:05.055Z,12.50
2019-04-23T10:50:14.129Z,14.70
2019-04-23T10:51:04.566Z,15.10
2019-04-23T10:52:17.081Z,14.10
2019-04-23T10:53:23.431Z,14.80
2019-04-23T10:54:25.157Z,12.80
2019-04-23T10:55:07.892Z,13.60
2019-04-23T10:56:09.962Z,14.00
2019-04-23T10:57:03.809Z,13.50
2019-04-23T10:59:14.025Z,12.60
2019-04-23T11:00:09.494Z,12.50
2019-04-23T11:02:31.341Z,12.80
2019-04-23T11:03:20.493Z,12.00
2019-04-23T11:04:23.818Z,13.00
2019-04-23T11:05:24.111Z,13.10
2019-04-23T11:06:21.296Z,14.30
2019-04-23T11:07:20.502Z,12.90
2019-04-23T11:08:13.202Z,13.30
2019-04-23T11:09:29.299Z,14.20
2019-04-23T11:10:23.532Z,18.00
2019-04-23T11:11:14.610Z,12.70
2019-04-23T11:12:16.191Z,13.20
2019-04-23T11:13:10.589Z,15.30
2019-04-23T11:14:12.205Z,13.60
2019-04-23T11:15:25.646Z,14.70
2019-04-23T11:16:38.619Z,12.40
2019-04-23T11:18:14.289Z,13.20
2019-04-23T11:20:15.137Z,12.30
2019-04-23T11:21:14.385Z,11.80
2019-04-23T11:22:28.104Z,12.80
2019-04-23T11:23:23.558Z,13.10
2019-04-23T11:24:20.940Z,12.40
2019-04-23T11:25:23.642Z,12.00
2019-04-23T11:26:15.627Z,14.80
2019-04-23T11:27:18.348Z,12.60
2019-04-23T11:28:17.966Z,12.60
2019-04-23T11:29:17.715Z,12.60
2019-04-23T11:30:19.560Z,12.70
2019-04-23T11:31:14.414Z,13.70
2019-04-23T11:32:34.551Z,13.90
2019-04-23T11:33:17.154Z,12.40
2019-04-23T11:34:20.245Z,14.10
2019-04-23T11:35:22.768Z,11.80
2019-04-23T11:36:43.476Z,12.70
2019-04-23T11:37:12.654Z,12.50
2019-04-23T11:38:35.265Z,11.70
2019-04-23T11:39:05.470Z,13.10
2019-04-23T11:41:17.230Z,13.90
2019-04-23T11:43:14.378Z,18.00
2019-04-23T11:44:18.979Z,12.90
2019-04-23T11:45:21.421Z,14.40
2019-04-23T11:47:12.519Z,13.70
2019-04-23T11:51:05.074Z,12.40
2019-04-23T11:51:11.170Z,11.90
2019-04-23T11:51:38.849Z,13.30
2019-04-23T11:53:15.569Z,12.20
2019-04-23T11:54:10.827Z,14.70
2019-04-23T11:55:22.406Z,12.90
2019-04-23T11:56:13.981Z,12.80
2019-04-23T11:58:13.754Z,13.60
2019-04-23T11:59:16.082Z,11.60
2019-04-23T12:01:23.673Z,11.90
2019-04-23T12:02:07.256Z,12.40
2019-04-23T12:03:02.671Z,13.60
2019-04-23T12:06:11.552Z,12.10
2019-04-23T12:07:15.249Z,12.40
2019-04-23T12:08:16.924Z,12.70
2019-04-23T12:09:07.500Z,12.00
2019-04-23T12:10:16.343Z,12.20
2019-04-23T12:11:39.502Z,12.70
2019-04-23T12:12:08.116Z,14.40
2019-04-23T12:13:12.559Z,12.30
2019-04-23T12:15:13.437Z,13.40
2019-04-23T12:16:12.471Z,12.20
2019-04-23T12:17:20.365Z,12.20
2019-04-23T12:18:10.905Z,12.70
2019-04-23T12:19:33.036Z,11.80
2019-04-23T12:21:12.723Z,14.20
2019-04-23T12:23:24.002Z,13.70
2019-04-23T12:24:23.367Z,13.00
2019-04-23T12:25:19.886Z,13.50
2019-04-23T12:26:11.480Z,11.60
2019-04-23T12:27:13.702Z,12.30
2019-04-23T12:28:06.677Z,12.40
2019-04-23T12:29:09.737Z,13.40
2019-04-23T12:30:21.008Z,12.10
2019-04-23T12:31:11.533Z,14.30
2019-04-23T12:32:22.712Z,11.30
2019-04-23T12:33:13.001Z,11.30
2019-04-23T12:34:20.723Z,11.60
2019-04-23T12:36:15.153Z,15.30
2019-04-23T12:37:06.503Z,14.70
2019-04-23T12:38:08.323Z,13.00
2019-04-23T12:39:11.133Z,9.70
2019-04-23T12:40:19.189Z,11.70
2019-04-23T12:41:10.143Z,10.50
2019-04-23T12:42:25.541Z,10.50
2019-04-23T12:43:18.966Z,12.10
2019-04-23T12:44:11.188Z,11.00
2019-04-23T12:45:18.101Z,12.70
2019-04-23T12:46:06.241Z,10.30
2019-04-23T12:47:21.053Z,10.20
2019-04-23T12:49:21.816Z,12.70
2019-04-23T12:51:09.409Z,9.90
2019-04-23T12:52:13.015Z,13.80
2019-04-23T12:53:10.272Z,11.30
2019-04-23T12:54:09.223Z,9.00
2019-04-23T12:56:10.816Z,12.10
2019-04-23T12:57:14.843Z,12.90
2019-04-23T12:58:09.978Z,9.40
2019-04-23T12:59:07.623Z,16.30
2019-04-23T13:00:09.959Z,14.50
2019-04-23T13:01:03.963Z,14.60
2019-04-23T13:02:16.042Z,12.80
2019-04-23T13:03:02.700Z,10.80
2019-04-23T13:04:09.367Z,10.90
2019-04-23T13:05:11.676Z,11.80
2019-04-23T13:06:01.758Z,13.00
2019-04-23T13:07:09.147Z,12.10
2019-04-23T13:08:08.333Z,15.80
2019-04-23T13:09:19.335Z,11.20
2019-04-23T13:10:09.666Z,10.60
2019-04-23T13:11:10.129Z,12.70
2019-04-23T13:12:18.465Z,12.70
2019-04-23T13:14:07.213Z,15.50
2019-04-23T13:15:11.228Z,13.50
2019-04-23T13:16:12.365Z,12.60
2019-04-23T13:17:11.743Z,12.60
2019-04-23T13:18:11.332Z,10.30
2019-04-23T13:19:13.733Z,9.80
2019-04-23T13:20:15.194Z,11.50
2019-04-23T13:21:15.859Z,10.00
2019-04-23T13:22:09.060Z,14.10
2019-04-23T13:23:14.151Z,11.50
2019-04-23T13:24:11.314Z,11.70
2019-04-23T13:25:09.649Z,11.40
2019-04-23T13:25:59.686Z,14.60
2019-04-23T13:27:15.175Z,11.20
2019-04-23T13:28:06.574Z,14.20
2019-04-23T13:29:11.085Z,9.90
2019-04-23T13:30:08.323Z,11.70
2019-04-23T13:31:07.916Z,10.30
2019-04-23T13:32:07.165Z,16.10
2019-04-23T13:33:08.041Z,13.20
2019-04-23T13:34:07.091Z,11.00
2019-04-23T13:35:22.081Z,10.50
2019-04-23T13:36:14.486Z,10.40
2019-04-23T13:37:16.269Z,14.90
2019-04-23T13:38:36.336Z,12.60
2019-04-23T13:39:09.456Z,13.40
2019-04-23T13:40:09.542Z,11.20
2019-04-23T13:41:13.387Z,10.20
2019-04-23T13:42:19.807Z,10.30
2019-04-23T13:43:12.499Z,13.30
2019-04-23T13:44:06.073Z,10.10
2019-04-23T13:45:33.256Z,12.50
2019-04-23T13:46:17.845Z,13.80
2019-04-23T13:47:10.556Z,10.90
2019-04-23T13:48:06.150Z,11.10
2019-04-23T13:49:02.808Z,10.90
2019-04-23T13:52:38.024Z,12.50
2019-04-23T13:54:08.209Z,10.00
2019-04-23T13:56:18.639Z,10.50
2019-04-23T13:57:36.632Z,15.00
2019-04-23T13:58:23.260Z,12.00
2019-04-23T14:00:06.560Z,10.40
2019-04-23T14:02:17.308Z,11.30
2019-04-23T14:03:03.993Z,13.00
2019-04-23T14:04:11.742Z,15.10
2019-04-23T14:05:04.824Z,13.30
2019-04-23T14:06:18.015Z,16.30
2019-04-23T14:07:07.836Z,11.50
2019-04-23T14:08:13.252Z,12.80
2019-04-23T14:08:59.380Z,10.90
2019-04-23T14:10:25.883Z,11.00
2019-04-23T14:11:22.310Z,13.20
2019-04-23T14:12:10.618Z,11.00
2019-04-23T14:13:37.777Z,11.30
2019-04-23T14:14:05.726Z,11.50
2019-04-23T14:16:10.113Z,10.20
2019-04-23T14:17:19.849Z,10.80
2019-04-23T14:18:27.024Z,11.60
2019-04-23T14:20:11.377Z,17.40
2019-04-23T14:21:14.614Z,11.30
2019-04-23T14:22:21.063Z,10.60
2019-04-23T14:24:16.681Z,11.10
2019-04-23T14:25:08.038Z,11.70
2019-04-23T14:27:14.898Z,11.10
2019-04-23T14:29:16.929Z,10.60
2019-04-23T14:30:17.857Z,12.80
2019-04-23T14:31:05.923Z,11.60
2019-04-23T14:32:08.786Z,13.30
2019-04-23T14:33:15.325Z,11.40
2019-04-23T14:34:04.897Z,11.20
2019-04-23T14:35:21.589Z,11.10
2019-04-23T14:36:07.672Z,11.20
2019-04-23T14:37:16.820Z,11.40
2019-04-23T14:40:17.273Z,11.70
2019-04-23T14:42:30.971Z,12.00
2019-04-23T14:43:17.964Z,14.20
2019-04-23T14:44:11.433Z,10.30
2019-04-23T14:45:19.121Z,13.20
2019-04-23T14:46:34.873Z,10.00
2019-04-23T14:48:08.800Z,11.60
2019-04-23T14:49:04.139Z,11.80
2019-04-23T14:50:29.399Z,11.10
2019-04-23T14:51:19.435Z,11.30
2019-04-23T14:52:10.506Z,12.00
2019-04-23T14:53:16.013Z,13.10
2019-04-23T14:54:04.835Z,12.30
2019-04-23T14:55:45.679Z,12.70
2019-04-23T14:56:09.487Z,13.00
2019-04-23T14:57:24.624Z,12.50
2019-04-23T14:58:17.209Z,10.90
2019-04-23T15:00:09.780Z,10.80
2019-04-23T15:02:05.544Z,11.70
2019-04-23T15:03:16.252Z,10.60
2019-04-23T15:04:01.892Z,10.70
2019-04-23T15:05:11.616Z,11.20
2019-04-23T15:07:08.950Z,11.70
2019-04-23T15:08:09.388Z,12.60
2019-04-23T15:09:16.660Z,12.80
2019-04-23T15:10:08.860Z,11.60
2019-04-23T15:12:16.168Z,11.40
2019-04-23T15:13:12.611Z,13.30
2019-04-23T15:14:06.154Z,14.30
2019-04-23T15:15:22.482Z,14.20
2019-04-23T15:16:17.110Z,13.10
2019-04-23T15:17:10.741Z,12.50
2019-04-23T15:18:09.476Z,11.90
2019-04-23T15:20:06.596Z,12.80
2019-04-23T15:21:31.490Z,12.40
2019-04-23T15:22:12.536Z,12.30
2019-04-23T15:27:08.458Z,11.80
2019-04-23T15:27:38.566Z,13.30
2019-04-23T15:28:06.592Z,11.80
2019-04-23T15:28:44.132Z,14.00
2019-04-23T15:29:54.113Z,12.70
2019-04-23T15:31:10.297Z,13.50
2019-04-23T15:32:14.915Z,11.50
2019-04-23T15:33:19.767Z,13.50
2019-04-23T15:35:18.492Z,12.70
2019-04-23T15:36:26.277Z,11.80
2019-04-23T15:38:32.236Z,13.70
2019-04-23T15:39:42.989Z,16.50
2019-04-23T15:40:08.247Z,13.20
2019-04-23T15:41:10.469Z,12.10
2019-04-23T15:42:12.725Z,12.80